createdAt,value
2019-03-30T00:00:44.319Z,4.17
2019-03-30T00:03:13.021Z,3.83
2019-03-30T00:05:41.610Z,3.90
2019-03-30T00:08:10.199Z,3.93
2019-03-30T00:10:38.790Z,3.90
2019-03-30T00:13:07.430Z,3.83
2019-03-30T00:15:36.050Z,3.63
2019-03-30T00:18:04.747Z,3.93
2019-03-30T00:20:33.358Z,3.73
2019-03-30T00:23:01.993Z,4.33
2019-03-30T00:25:30.571Z,4.50
2019-03-30T00:27:59.166Z,3.60
2019-03-30T00:30:27.745Z,4.63
2019-03-30T00:32:56.425Z,4.13
2019-03-30T00:35:25.015Z,4.83
2019-03-30T00:37:53.604Z,3.83
2019-03-30T00:40:22.186Z,4.30
2019-03-30T00:42:50.826Z,5.00
2019-03-30T00:45:19.420Z,3.97
2019-03-30T00:47:48.103Z,4.23
2019-03-30T00:50:16.690Z,4.30
2019-03-30T00:52:45.302Z,4.37
2019-03-30T00:55:13.910Z,4.23
2019-03-30T00:57:42.493Z,4.53
2019-03-30T01:00:11.299Z,3.93
2019-03-30T01:02:39.907Z,4.10
2019-03-30T01:05:08.486Z,4.10
2019-03-30T01:07:37.086Z,4.13
2019-03-30T01:10:06.059Z,4.10
2019-03-30T01:12:34.673Z,4.50
2019-03-30T01:15:03.309Z,4.03
2019-03-30T01:17:31.909Z,3.87
2019-03-30T01:20:03.099Z,4.13
2019-03-30T01:22:30.737Z,4.40
2019-03-30T01:24:59.370Z,3.83
2019-03-30T01:27:27.978Z,4.20
2019-03-30T01:29:56.579Z,4.40
2019-03-30T01:32:25.165Z,4.03
2019-03-30T01:34:53.744Z,3.63
2019-03-30T01:37:22.330Z,3.97
2019-03-30T01:39:50.920Z,4.10
2019-03-30T01:42:19.525Z,4.17
2019-03-30T01:44:48.110Z,3.90
2019-03-30T01:47:16.706Z,4.10
2019-03-30T01:49:45.290Z,3.83
2019-03-30T01:52:13.986Z,3.50
2019-03-30T01:54:42.586Z,3.50
2019-03-30T01:57:11.243Z,3.90
2019-03-30T01:59:39.834Z,4.23
2019-03-30T02:02:08.438Z,4.37
2019-03-30T02:04:37.153Z,4.50
2019-03-30T02:07:05.748Z,4.33
2019-03-30T02:09:34.342Z,3.57
2019-03-30T02:12:03.330Z,3.77
2019-03-30T02:14:31.930Z,4.20
2019-03-30T02:17:00.581Z,3.93
2019-03-30T02:19:29.257Z,3.53
2019-03-30T02:21:57.858Z,4.63
2019-03-30T02:24:26.455Z,3.90
2019-03-30T02:26:55.047Z,4.10
2019-03-30T02:29:23.710Z,4.10
2019-03-30T02:31:52.308Z,3.70
2019-03-30T02:34:20.903Z,4.63
2019-03-30T02:36:49.493Z,4.47
2019-03-30T02:39:18.200Z,3.33
2019-03-30T02:41:46.789Z,4.47
2019-03-30T02:44:15.383Z,4.00
2019-03-30T02:46:44.059Z,3.97
2019-03-30T02:49:12.651Z,3.70
2019-03-30T02:51:41.241Z,3.97
2019-03-30T02:54:09.823Z,3.43
2019-03-30T02:56:38.508Z,3.50
2019-03-30T02:59:07.099Z,3.60
2019-03-30T03:01:35.759Z,3.97
2019-03-30T03:04:04.441Z,3.70
2019-03-30T03:06:33.047Z,3.50
2019-03-30T03:09:01.639Z,3.97
2019-03-30T03:11:30.227Z,4.03
2019-03-30T03:13:58.816Z,4.07
2019-03-30T03:16:27.700Z,3.93
2019-03-30T03:18:56.534Z,3.90
2019-03-30T03:21:25.120Z,3.93
2019-03-30T03:23:53.717Z,3.97
2019-03-30T03:26:22.324Z,4.83
2019-03-30T03:28:50.921Z,3.80
2019-03-30T03:31:19.511Z,3.93
2019-03-30T03:33:48.153Z,3.90
2019-03-30T03:36:16.747Z,4.00
2019-03-30T03:38:45.327Z,3.73
2019-03-30T03:41:13.915Z,4.23
2019-03-30T03:43:42.534Z,4.63
2019-03-30T03:46:11.103Z,3.87
2019-03-30T03:48:39.685Z,4.20
2019-03-30T03:51:25.070Z,4.50
2019-03-30T03:53:39.118Z,3.67
2019-03-30T03:56:08.598Z,4.53
2019-03-30T03:58:37.394Z,4.33
2019-03-30T04:01:06.088Z,3.50
2019-03-30T04:03:35.292Z,4.17
2019-03-30T04:06:06.625Z,4.07
2019-03-30T04:08:36.351Z,4.00
2019-03-30T04:11:05.033Z,4.20
2019-03-30T04:13:33.739Z,3.73
2019-03-30T04:16:02.436Z,4.00
2019-03-30T04:18:31.048Z,4.27
2019-03-30T04:20:59.658Z,4.00
2019-03-30T04:23:28.277Z,3.97
2019-03-30T04:25:56.996Z,3.97
2019-03-30T04:28:25.564Z,5.13
2019-03-30T04:30:54.174Z,4.73
2019-03-30T04:33:22.771Z,3.57
2019-03-30T04:35:51.355Z,4.60
2019-03-30T04:38:20.115Z,4.63
2019-03-30T04:40:48.714Z,4.10
2019-03-30T04:43:17.306Z,3.83
2019-03-30T04:45:45.900Z,3.80
2019-03-30T04:48:14.511Z,3.83
2019-03-30T04:50:43.103Z,3.73
2019-03-30T04:53:11.794Z,3.60
2019-03-30T04:55:40.917Z,4.10
2019-03-30T04:58:09.697Z,4.17
2019-03-30T05:00:38.406Z,4.23
2019-03-30T05:03:07.057Z,3.80
2019-03-30T05:05:35.599Z,3.80
2019-03-30T05:08:04.222Z,3.87
2019-03-30T05:10:32.873Z,4.47
2019-03-30T05:13:01.495Z,4.00
2019-03-30T05:15:30.090Z,3.57
2019-03-30T05:17:58.683Z,4.00
2019-03-30T05:20:27.407Z,3.50
2019-03-30T05:22:55.988Z,4.40
2019-03-30T05:25:24.683Z,3.57
2019-03-30T05:27:53.264Z,3.80
2019-03-30T05:30:21.839Z,3.77
2019-03-30T05:33:04.646Z,3.70
2019-03-30T05:35:20.677Z,4.67
2019-03-30T05:37:49.255Z,4.10
2019-03-30T05:40:17.858Z,4.03
2019-03-30T05:42:46.492Z,3.70
2019-03-30T05:45:15.188Z,4.63
2019-03-30T05:47:43.763Z,3.77
2019-03-30T05:50:12.484Z,4.23
2019-03-30T05:52:41.066Z,3.67
2019-03-30T05:55:09.638Z,4.27
2019-03-30T05:57:38.223Z,4.03
2019-03-30T06:00:07.235Z,4.00
2019-03-30T06:02:35.828Z,4.37
2019-03-30T06:05:04.577Z,3.70
2019-03-30T06:07:33.181Z,4.27
2019-03-30T06:10:01.763Z,4.70
2019-03-30T06:12:30.367Z,4.90
2019-03-30T06:14:59.116Z,4.03
2019-03-30T06:17:27.701Z,4.67
2019-03-30T06:19:56.361Z,5.00
2019-03-30T06:22:24.983Z,4.93
2019-03-30T06:24:53.604Z,4.77
2019-03-30T06:27:22.197Z,4.97
2019-03-30T06:30:08.001Z,4.90
2019-03-30T06:32:36.587Z,4.27
2019-03-30T06:35:05.330Z,5.03
2019-03-30T06:37:34.022Z,18.57
2019-03-30T06:40:02.675Z,5.63
2019-03-30T06:42:31.286Z,4.87
2019-03-30T06:44:59.899Z,4.77
2019-03-30T06:47:28.551Z,5.23
2019-03-30T06:49:57.167Z,5.90
2019-03-30T06:52:25.774Z,4.40
2019-03-30T06:54:54.367Z,5.50
2019-03-30T06:57:22.971Z,5.20
2019-03-30T06:59:51.572Z,4.93
2019-03-30T07:02:20.164Z,5.03
2019-03-30T07:04:49.158Z,5.50
2019-03-30T07:07:18.277Z,5.80
2019-03-30T07:09:48.710Z,6.10
2019-03-30T07:12:18.223Z,5.90
2019-03-30T07:14:48.292Z,6.67
2019-03-30T07:17:17.006Z,5.40
2019-03-30T07:19:45.845Z,6.17
2019-03-30T07:22:14.669Z,7.37
2019-03-30T07:24:43.363Z,5.20
2019-03-30T07:27:11.949Z,6.20
2019-03-30T07:29:40.543Z,5.63
2019-03-30T07:32:09.137Z,5.60
2019-03-30T07:34:37.732Z,5.33
2019-03-30T07:37:06.341Z,5.30
2019-03-30T07:39:35.263Z,5.07
2019-03-30T07:42:04.311Z,5.10
2019-03-30T07:44:32.896Z,4.60
2019-03-30T07:47:01.473Z,5.20
2019-03-30T07:49:30.068Z,5.10
2019-03-30T07:51:59.045Z,5.27
2019-03-30T07:54:28.167Z,4.73
2019-03-30T07:57:05.351Z,4.80
2019-03-30T07:59:27.719Z,4.50
2019-03-30T08:01:56.744Z,4.30
2019-03-30T08:04:28.537Z,4.53
2019-03-30T08:06:56.090Z,5.60
2019-03-30T08:09:24.681Z,4.83
2019-03-30T08:11:53.416Z,5.00
2019-03-30T08:14:22.015Z,5.27
2019-03-30T08:16:50.607Z,5.17
2019-03-30T08:19:21.809Z,5.40
2019-03-30T08:21:49.445Z,5.07
2019-03-30T08:24:18.490Z,4.33
2019-03-30T08:26:47.458Z,4.47
2019-03-30T08:29:16.030Z,3.73
2019-03-30T08:31:44.615Z,4.03
2019-03-30T08:34:13.206Z,3.47
2019-03-30T08:36:41.815Z,6.30
2019-03-30T08:39:10.402Z,4.23
2019-03-30T08:41:38.998Z,3.87
2019-03-30T08:44:07.686Z,4.07
2019-03-30T08:46:36.286Z,3.87
2019-03-30T08:49:04.886Z,4.30
2019-03-30T08:51:33.474Z,3.27
2019-03-30T08:54:02.051Z,4.63
2019-03-30T08:56:30.838Z,4.70
2019-03-30T08:58:59.439Z,3.37
2019-03-30T09:01:28.037Z,4.60
2019-03-30T09:03:56.626Z,4.43
2019-03-30T09:06:25.234Z,3.93
2019-03-30T09:08:53.834Z,4.10
2019-03-30T09:11:22.414Z,3.93
2019-03-30T09:13:50.989Z,4.00
2019-03-30T09:16:19.578Z,3.90
2019-03-30T09:18:48.291Z,4.20
2019-03-30T09:21:16.926Z,3.77
2019-03-30T09:23:45.508Z,4.43
2019-03-30T09:26:16.653Z,4.07
2019-03-30T09:28:44.427Z,4.30
2019-03-30T09:31:13.014Z,4.53
2019-03-30T09:33:41.763Z,3.83
2019-03-30T09:36:10.481Z,4.73
2019-03-30T09:38:39.053Z,4.23
2019-03-30T09:41:07.626Z,4.20
2019-03-30T09:43:37.727Z,5.07
2019-03-30T09:46:06.603Z,4.33
2019-03-30T09:48:35.212Z,4.30
2019-03-30T09:51:03.803Z,4.57
2019-03-30T09:53:32.404Z,4.57
2019-03-30T09:56:01.097Z,4.67
2019-03-30T09:58:29.672Z,4.20
2019-03-30T10:00:58.322Z,4.90
2019-03-30T10:03:26.902Z,4.17
2019-03-30T10:05:55.590Z,3.93
2019-03-30T10:08:24.179Z,4.43
2019-03-30T10:10:52.806Z,4.80
2019-03-30T10:13:21.405Z,4.43
2019-03-30T10:15:50.000Z,5.03
2019-03-30T10:18:18.596Z,4.60
2019-03-30T10:20:47.354Z,4.30
2019-03-30T10:23:16.087Z,4.47
2019-03-30T10:25:44.792Z,3.50
2019-03-30T10:28:13.382Z,4.60
2019-03-30T10:30:42.407Z,4.20
2019-03-30T10:33:11.040Z,4.00
2019-03-30T10:35:39.618Z,4.40
2019-03-30T10:38:08.891Z,4.27
2019-03-30T10:40:37.934Z,4.27
2019-03-30T10:43:06.982Z,4.27
2019-03-30T10:45:35.975Z,4.10
2019-03-30T10:48:05.203Z,4.03
2019-03-30T10:50:34.417Z,4.43
2019-03-30T10:53:04.155Z,4.40
2019-03-30T10:55:32.752Z,5.43
2019-03-30T10:58:01.338Z,5.43
2019-03-30T11:00:37.393Z,4.40
2019-03-30T11:03:05.967Z,5.00
2019-03-30T11:05:34.600Z,5.70
2019-03-30T11:08:03.298Z,4.70
2019-03-30T11:10:31.919Z,5.77
2019-03-30T11:13:00.517Z,4.40
2019-03-30T11:15:29.462Z,4.73
2019-03-30T11:17:58.196Z,4.53
2019-03-30T11:20:26.781Z,4.80
2019-03-30T11:22:55.748Z,5.03
2019-03-30T11:25:25.083Z,5.07
2019-03-30T11:27:54.042Z,5.30
2019-03-30T11:30:23.434Z,4.63
2019-03-30T11:32:52.170Z,4.27
2019-03-30T11:35:21.115Z,4.00
2019-03-30T11:37:50.520Z,4.67
2019-03-30T11:40:19.563Z,5.10
2019-03-30T11:42:48.769Z,5.00
2019-03-30T11:45:17.994Z,4.70
2019-03-30T11:47:46.734Z,4.83
2019-03-30T11:50:16.063Z,5.17
2019-03-30T11:52:45.114Z,4.27
2019-03-30T11:55:21.731Z,4.80
2019-03-30T11:57:45.716Z,4.53
2019-03-30T12:00:16.342Z,4.40
2019-03-30T12:02:45.354Z,5.23
2019-03-30T12:05:14.045Z,3.87
2019-03-30T12:07:42.670Z,4.50
2019-03-30T12:10:11.978Z,4.00
2019-03-30T12:12:40.728Z,4.47
2019-03-30T12:15:09.459Z,4.00
2019-03-30T12:17:40.826Z,4.53
2019-03-30T12:20:08.737Z,4.23
2019-03-30T12:22:37.891Z,4.60
2019-03-30T12:25:07.358Z,3.80
2019-03-30T12:27:37.009Z,4.50
2019-03-30T12:30:06.339Z,4.63
2019-03-30T12:32:34.974Z,4.53
2019-03-30T12:35:03.570Z,5.00
2019-03-30T12:37:32.809Z,4.90
2019-03-30T12:40:01.786Z,4.87
2019-03-30T12:42:31.038Z,5.20
2019-03-30T12:44:59.747Z,4.73
2019-03-30T12:47:28.449Z,4.13
2019-03-30T12:49:57.053Z,4.40
2019-03-30T12:52:26.590Z,4.33
2019-03-30T12:54:55.649Z,4.47
2019-03-30T12:57:24.262Z,5.13
2019-03-30T12:59:52.870Z,4.30
2019-03-30T13:02:21.653Z,4.20
2019-03-30T13:04:50.227Z,4.67
2019-03-30T13:07:19.356Z,4.23
2019-03-30T13:09:48.007Z,4.20
2019-03-30T13:12:16.634Z,4.00
2019-03-30T13:14:45.259Z,3.53
2019-03-30T13:17:14.004Z,4.50
2019-03-30T13:19:42.738Z,3.50
2019-03-30T13:22:11.426Z,4.27
2019-03-30T13:24:40.030Z,4.13
2019-03-30T13:27:08.660Z,4.50
2019-03-30T13:29:37.347Z,4.13
2019-03-30T13:32:06.055Z,4.60
2019-03-30T13:34:34.883Z,4.20
2019-03-30T13:37:10.577Z,3.83
2019-03-30T13:39:40.548Z,3.70
2019-03-30T13:42:10.333Z,3.57
2019-03-30T13:44:39.154Z,3.87
2019-03-30T13:47:10.660Z,3.63
2019-03-30T13:49:39.791Z,3.20
2019-03-30T13:52:09.694Z,3.67
2019-03-30T13:54:39.097Z,3.30
2019-03-30T13:57:08.382Z,3.53
2019-03-30T13:59:37.577Z,3.83
2019-03-30T14:02:06.768Z,3.23
2019-03-30T14:04:35.383Z,3.17
2019-03-30T14:07:04.115Z,3.07
2019-03-30T14:09:32.868Z,3.73
2019-03-30T14:12:01.503Z,3.57
2019-03-30T14:14:30.168Z,3.07
2019-03-30T14:16:59.043Z,3.07
2019-03-30T14:19:27.858Z,3.10
2019-03-30T14:21:56.474Z,3.00
2019-03-30T14:24:25.156Z,2.87
2019-03-30T14:26:54.003Z,2.80
2019-03-30T14:29:22.683Z,3.60
2019-03-30T14:31:51.366Z,3.07
2019-03-30T14:34:20.274Z,2.80
2019-03-30T14:36:48.961Z,2.80
2019-03-30T14:39:18.061Z,2.80
2019-03-30T14:41:46.820Z,2.90
2019-03-30T14:44:15.476Z,3.47
2019-03-30T14:46:44.358Z,3.23
2019-03-30T14:49:13.044Z,4.50
2019-03-30T14:51:41.664Z,3.20
2019-03-30T14:54:10.557Z,3.20
2019-03-30T14:56:45.603Z,3.43
2019-03-30T14:59:10.687Z,3.63
2019-03-30T15:01:39.798Z,3.13
2019-03-30T15:04:09.106Z,2.93
2019-03-30T15:06:38.059Z,3.13
2019-03-30T15:09:07.269Z,3.00
2019-03-30T15:11:37.994Z,3.47
2019-03-30T15:14:06.386Z,3.30
2019-03-30T15:16:35.064Z,3.30
2019-03-30T15:19:04.370Z,3.00
2019-03-30T15:21:33.040Z,3.47
2019-03-30T15:24:01.677Z,2.93
2019-03-30T15:26:30.294Z,3.40
2019-03-30T15:28:58.925Z,3.47
2019-03-30T15:31:27.532Z,3.00
2019-03-30T15:33:56.197Z,3.60
2019-03-30T15:36:24.792Z,3.20
2019-03-30T15:38:53.424Z,3.17
2019-03-30T15:41:22.038Z,2.80
2019-03-30T15:43:52.200Z,3.20
2019-03-30T15:46:20.856Z,3.30
2019-03-30T15:48:49.572Z,3.30
2019-03-30T15:51:18.297Z,3.00
2019-03-30T15:53:46.935Z,3.37
2019-03-30T15:56:15.663Z,3.80
2019-03-30T15:58:44.435Z,3.33
2019-03-30T16:01:13.235Z,3.40
2019-03-30T16:03:41.868Z,3.20
2019-03-30T16:06:10.493Z,3.27
2019-03-30T16:08:39.175Z,3.07
2019-03-30T16:11:07.859Z,3.07
2019-03-30T16:13:36.574Z,3.20
2019-03-30T16:16:05.235Z,3.33
2019-03-30T16:18:33.887Z,3.07
2019-03-30T16:21:02.524Z,3.20
2019-03-30T16:23:31.234Z,3.20
2019-03-30T16:25:59.896Z,3.27
2019-03-30T16:28:28.639Z,3.33
2019-03-30T16:30:57.395Z,3.10
2019-03-30T16:33:25.994Z,3.23
2019-03-30T16:35:54.670Z,2.90
2019-03-30T16:38:23.369Z,3.00
2019-03-30T16:40:52.017Z,3.00
2019-03-30T16:43:20.758Z,3.47
2019-03-30T16:45:49.359Z,3.23
2019-03-30T16:48:18.038Z,3.00
2019-03-30T16:50:47.970Z,3.03
2019-03-30T16:53:16.587Z,3.03
2019-03-30T16:55:45.226Z,4.13
2019-03-30T16:58:13.827Z,3.70
2019-03-30T17:00:55.767Z,3.10
2019-03-30T17:03:12.766Z,2.93
2019-03-30T17:05:41.369Z,3.00
2019-03-30T17:08:10.059Z,3.10
2019-03-30T17:10:40.257Z,3.13
2019-03-30T17:13:08.970Z,3.30
2019-03-30T17:15:37.606Z,2.50
2019-03-30T17:18:06.172Z,2.97
2019-03-30T17:20:34.980Z,3.07
2019-03-30T17:23:03.584Z,2.80
2019-03-30T17:25:32.182Z,2.70
2019-03-30T17:28:00.777Z,3.13
2019-03-30T17:30:29.369Z,2.60
2019-03-30T17:32:57.967Z,2.67
2019-03-30T17:35:26.571Z,2.93
2019-03-30T17:37:55.210Z,2.80
2019-03-30T17:40:23.830Z,2.70
2019-03-30T17:42:52.647Z,2.83
2019-03-30T17:45:21.432Z,2.43
2019-03-30T17:47:50.053Z,2.60
2019-03-30T17:50:18.801Z,2.70
2019-03-30T17:52:47.458Z,2.50
2019-03-30T17:55:16.267Z,2.40
2019-03-30T17:57:45.068Z,2.40
2019-03-30T18:00:16.101Z,2.60
2019-03-30T18:02:44.825Z,2.77
2019-03-30T18:05:14.245Z,3.00
2019-03-30T18:07:43.114Z,3.60
2019-03-30T18:10:11.902Z,3.33
2019-03-30T18:12:40.606Z,3.00
2019-03-30T18:15:09.478Z,2.73
2019-03-30T18:17:38.138Z,3.23
2019-03-30T18:20:07.250Z,2.83
2019-03-30T18:22:35.971Z,2.80
2019-03-30T18:25:04.850Z,2.83
2019-03-30T18:27:33.551Z,2.50
2019-03-30T18:30:02.226Z,2.93
2019-03-30T18:32:31.567Z,2.63
2019-03-30T18:35:00.396Z,2.80
2019-03-30T18:37:29.761Z,2.50
2019-03-30T18:39:58.681Z,2.73
2019-03-30T18:42:27.509Z,2.70
2019-03-30T18:44:57.651Z,2.50
2019-03-30T18:47:26.669Z,2.53
2019-03-30T18:49:55.392Z,2.67
2019-03-30T18:52:24.343Z,3.17
2019-03-30T18:54:53.947Z,3.17
2019-03-30T18:57:23.042Z,2.87
2019-03-30T18:59:51.822Z,3.50
2019-03-30T19:02:20.705Z,2.87
2019-03-30T19:04:49.362Z,2.83
2019-03-30T19:07:18.021Z,2.70
2019-03-30T19:09:46.782Z,2.70
2019-03-30T19:12:15.471Z,2.73
2019-03-30T19:14:44.130Z,3.17
2019-03-30T19:17:13.570Z,3.03
2019-03-30T19:19:42.259Z,3.00
2019-03-30T19:22:10.839Z,2.50
2019-03-30T19:24:39.496Z,2.93
2019-03-30T19:27:08.192Z,2.93
2019-03-30T19:29:36.863Z,2.60
2019-03-30T19:32:05.567Z,3.10
2019-03-30T19:34:34.164Z,2.63
2019-03-30T19:37:02.875Z,3.10
2019-03-30T19:39:31.469Z,3.17
2019-03-30T19:42:00.079Z,3.83
2019-03-30T19:44:28.657Z,3.07
2019-03-30T19:46:57.243Z,3.70
2019-03-30T19:49:25.821Z,3.40
2019-03-30T19:51:54.698Z,3.30
2019-03-30T19:54:23.315Z,3.20
2019-03-30T19:56:51.907Z,3.40
2019-03-30T19:59:20.495Z,3.10
2019-03-30T20:01:49.258Z,2.90
2019-03-30T20:04:17.835Z,2.97
2019-03-30T20:06:46.728Z,3.10
2019-03-30T20:09:15.383Z,3.10
2019-03-30T20:11:43.958Z,3.10
2019-03-30T20:14:12.744Z,3.10
2019-03-30T20:16:42.359Z,3.87
2019-03-30T20:19:12.988Z,3.73
2019-03-30T20:21:41.530Z,3.43
2019-03-30T20:24:10.126Z,3.53
2019-03-30T20:26:39.053Z,3.10
2019-03-30T20:29:08.130Z,2.87
2019-03-30T20:31:37.182Z,3.13
2019-03-30T20:34:06.588Z,3.23
2019-03-30T20:36:35.847Z,2.93
2019-03-30T20:39:08.182Z,2.60
2019-03-30T20:41:36.871Z,3.30
2019-03-30T20:44:06.432Z,3.17
2019-03-30T20:46:35.767Z,3.23
2019-03-30T20:49:05.281Z,3.03
2019-03-30T20:51:34.706Z,3.73
2019-03-30T20:54:03.757Z,3.17
2019-03-30T20:56:33.547Z,3.60
2019-03-30T20:59:02.609Z,3.33
2019-03-30T21:01:31.907Z,3.87
2019-03-30T21:04:01.030Z,3.00
2019-03-30T21:06:30.138Z,3.23
2019-03-30T21:08:59.678Z,3.43
2019-03-30T21:11:28.748Z,3.20
2019-03-30T21:13:57.760Z,3.10
2019-03-30T21:16:27.362Z,3.50
2019-03-30T21:18:56.786Z,3.10
2019-03-30T21:21:25.377Z,3.23
2019-03-30T21:23:54.552Z,2.90
2019-03-30T21:26:23.875Z,2.87
2019-03-30T21:28:52.923Z,3.20
2019-03-30T21:31:21.516Z,2.93
2019-03-30T21:33:50.766Z,2.87
2019-03-30T21:36:20.196Z,3.07
2019-03-30T21:38:49.292Z,3.20
2019-03-30T21:41:18.642Z,3.10
2019-03-30T21:43:47.705Z,3.27
2019-03-30T21:46:16.718Z,2.93
2019-03-30T21:48:45.736Z,3.30
2019-03-30T21:51:14.803Z,2.97
2019-03-30T21:53:44.186Z,3.47
2019-03-30T21:56:13.226Z,3.37
2019-03-30T21:58:42.280Z,3.20
2019-03-30T22:01:11.287Z,3.43
2019-03-30T22:03:40.695Z,3.47
2019-03-30T22:06:09.806Z,3.90
2019-03-30T22:08:39.469Z,4.27
2019-03-30T22:11:08.870Z,3.90
2019-03-30T22:13:38.290Z,4.60
2019-03-30T22:16:07.319Z,3.67
2019-03-30T22:18:36.270Z,4.20
2019-03-30T22:21:05.579Z,3.63
2019-03-30T22:23:34.595Z,4.50
2019-03-30T22:26:04.259Z,3.77
2019-03-30T22:28:33.163Z,4.20
2019-03-30T22:31:02.218Z,4.37
2019-03-30T22:33:31.608Z,4.23
2019-03-30T22:36:01.033Z,3.83
2019-03-30T22:38:30.137Z,3.63
2019-03-30T22:40:59.676Z,3.60
2019-03-30T22:43:28.999Z,4.13
2019-03-30T22:45:58.124Z,4.20
2019-03-30T22:48:27.226Z,4.10
2019-03-30T22:50:56.782Z,4.60
2019-03-30T22:53:26.070Z,4.37
2019-03-30T22:55:55.496Z,4.93
2019-03-30T22:58:24.747Z,4.03
2019-03-30T23:01:03.612Z,3.60
2019-03-30T23:03:33.038Z,3.57
2019-03-30T23:06:02.011Z,3.90
2019-03-30T23:08:31.587Z,4.03
2019-03-30T23:11:01.009Z,6.40
2019-03-30T23:13:30.087Z,6.20
2019-03-30T23:15:59.471Z,6.67
2019-03-30T23:18:28.529Z,10.23
2019-03-30T23:20:57.544Z,12.90
2019-03-30T23:23:27.143Z,22.73
2019-03-30T23:25:56.376Z,11.67
2019-03-30T23:28:25.442Z,10.83
2019-03-30T23:30:54.983Z,10.80
2019-03-30T23:33:24.636Z,12.53
2019-03-30T23:35:53.687Z,14.87
2019-03-30T23:38:22.756Z,12.17
2019-03-30T23:40:52.340Z,7.27
2019-03-30T23:43:21.641Z,5.57
2019-03-30T23:45:50.871Z,5.37
2019-03-30T23:48:20.199Z,4.60
2019-03-30T23:50:49.258Z,5.10
2019-03-30T23:53:18.277Z,5.53
2019-03-30T23:55:47.303Z,11.40
2019-03-30T23:58:16.334Z,5.23
